createdAt,value
2018-02-27T00:00:10.280Z,70.40
2018-02-27T00:02:37.900Z,70.40
2018-02-27T00:05:05.484Z,70.30
2018-02-27T00:07:33.082Z,70.20
2018-02-27T00:10:01.426Z,70.20
2018-02-27T00:12:29.001Z,70.20
2018-02-27T00:14:56.599Z,70.10
2018-02-27T00:17:24.946Z,70.20
2018-02-27T00:19:52.527Z,70.10
2018-02-27T00:22:20.107Z,70.10
2018-02-27T00:24:48.464Z,70.00
2018-02-27T00:27:16.092Z,70.00
2018-02-27T00:29:43.680Z,70.00
2018-02-27T00:32:11.285Z,69.80
2018-02-27T00:34:39.634Z,69.80
2018-02-27T00:37:07.254Z,70.50
2018-02-27T00:39:34.862Z,69.90
2018-02-27T00:42:02.468Z,69.80
2018-02-27T00:44:30.810Z,69.80
2018-02-27T00:46:58.400Z,69.70
2018-02-27T00:49:26.731Z,69.70
2018-02-27T00:51:54.300Z,69.60
2018-02-27T00:54:21.874Z,69.60
2018-02-27T00:56:49.430Z,69.60
2018-02-27T00:59:17.017Z,69.70
2018-02-27T01:01:44.603Z,69.70
2018-02-27T01:04:12.203Z,69.80
2018-02-27T01:06:39.787Z,70.00
2018-02-27T01:09:07.391Z,70.10
2018-02-27T01:11:34.956Z,70.10
2018-02-27T01:14:02.556Z,70.10
2018-02-27T01:16:30.162Z,70.10
2018-02-27T01:18:57.752Z,70.20
2018-02-27T01:21:25.334Z,70.30
2018-02-27T01:23:53.712Z,70.20
2018-02-27T01:26:22.054Z,70.70
2018-02-27T01:28:49.626Z,70.20
2018-02-27T01:31:17.190Z,70.20
2018-02-27T01:33:44.761Z,70.10
2018-02-27T01:36:12.315Z,70.10
2018-02-27T01:38:39.888Z,70.00
2018-02-27T01:41:07.473Z,70.10
2018-02-27T01:43:35.063Z,70.20
2018-02-27T01:46:02.665Z,70.30
2018-02-27T01:48:30.235Z,70.40
2018-02-27T01:51:09.646Z,70.50
2018-02-27T01:53:37.215Z,70.40
2018-02-27T01:56:04.803Z,70.60
2018-02-27T01:58:32.457Z,70.50
2018-02-27T02:01:01.215Z,70.60
2018-02-27T02:03:29.542Z,70.60
2018-02-27T02:05:57.134Z,70.60
2018-02-27T02:08:24.716Z,70.60
2018-02-27T02:10:53.102Z,70.80
2018-02-27T02:13:21.451Z,70.80
2018-02-27T02:15:49.079Z,70.80
2018-02-27T02:18:16.687Z,71.00
2018-02-27T02:20:44.297Z,70.90
2018-02-27T02:23:11.889Z,70.80
2018-02-27T02:25:39.497Z,71.00
2018-02-27T02:28:07.125Z,71.10
2018-02-27T02:30:34.685Z,71.20
2018-02-27T02:33:02.260Z,71.30
2018-02-27T02:35:29.849Z,71.40
2018-02-27T02:37:57.456Z,71.70
2018-02-27T02:40:25.020Z,71.80
2018-02-27T02:42:52.584Z,71.70
2018-02-27T02:45:20.156Z,71.80
2018-02-27T02:47:47.740Z,71.80
2018-02-27T02:50:16.192Z,71.80
2018-02-27T02:52:44.547Z,72.00
2018-02-27T02:55:12.152Z,72.00
2018-02-27T02:57:39.739Z,72.10
2018-02-27T03:00:07.350Z,72.20
2018-02-27T03:02:34.967Z,72.10
2018-02-27T03:05:03.333Z,72.10
2018-02-27T03:07:30.939Z,72.10
2018-02-27T03:09:58.615Z,72.30
2018-02-27T03:12:28.023Z,72.20
2018-02-27T03:14:55.617Z,72.50
2018-02-27T03:17:24.034Z,72.50
2018-02-27T03:19:51.625Z,72.40
2018-02-27T03:22:19.254Z,72.50
2018-02-27T03:24:46.905Z,72.60
2018-02-27T03:27:15.290Z,72.30
2018-02-27T03:29:42.912Z,73.00
2018-02-27T03:32:10.506Z,72.40
2018-02-27T03:34:38.866Z,72.30
2018-02-27T03:37:07.014Z,72.30
2018-02-27T03:39:34.671Z,72.40
2018-02-27T03:42:02.296Z,72.50
2018-02-27T03:44:30.682Z,72.80
2018-02-27T03:46:59.085Z,73.60
2018-02-27T03:49:26.711Z,72.70
2018-02-27T03:51:54.299Z,72.90
2018-02-27T03:54:22.647Z,73.20
2018-02-27T03:56:50.270Z,73.10
2018-02-27T03:59:17.855Z,73.30
2018-02-27T04:01:45.432Z,73.50
2018-02-27T04:04:13.044Z,73.40
2018-02-27T04:06:41.389Z,73.80
2018-02-27T04:09:08.993Z,73.80
2018-02-27T04:11:37.361Z,74.90
2018-02-27T04:14:04.968Z,74.90
2018-02-27T04:16:32.614Z,75.10
2018-02-27T04:19:00.971Z,75.40
2018-02-27T04:21:28.562Z,75.40
2018-02-27T04:23:56.888Z,75.70
2018-02-27T04:26:24.475Z,75.60
2018-02-27T04:28:52.061Z,75.60
2018-02-27T04:31:20.406Z,76.20
2018-02-27T04:33:48.005Z,76.10
2018-02-27T04:36:16.342Z,76.30
2018-02-27T04:38:43.918Z,76.20
2018-02-27T04:41:11.503Z,76.00
2018-02-27T04:43:39.061Z,75.70
2018-02-27T04:46:06.635Z,75.60
2018-02-27T04:48:35.425Z,75.80
2018-02-27T04:51:03.010Z,75.80
2018-02-27T04:53:31.351Z,76.20
2018-02-27T04:55:58.905Z,76.10
2018-02-27T04:58:26.520Z,76.60
2018-02-27T05:00:54.946Z,77.90
2018-02-27T05:03:22.530Z,77.80
2018-02-27T05:05:50.184Z,78.00
2018-02-27T05:08:17.753Z,78.10
2018-02-27T05:10:45.361Z,78.10
2018-02-27T05:13:12.941Z,78.60
2018-02-27T05:15:41.793Z,78.10
2018-02-27T05:18:09.410Z,78.00
2018-02-27T05:20:36.991Z,77.90
2018-02-27T05:23:04.601Z,78.40
2018-02-27T05:25:32.170Z,78.60
2018-02-27T05:28:00.572Z,79.00
2018-02-27T05:30:28.919Z,78.60
2018-02-27T05:32:56.496Z,78.60
2018-02-27T05:35:24.092Z,78.80
2018-02-27T05:37:52.466Z,78.70
2018-02-27T05:40:20.876Z,78.90
2018-02-27T05:42:48.500Z,78.80
2018-02-27T05:45:16.065Z,79.20
2018-02-27T05:47:44.494Z,79.20
2018-02-27T05:50:12.101Z,79.00
2018-02-27T05:52:39.743Z,79.70
2018-02-27T05:55:07.325Z,79.80
2018-02-27T05:57:34.911Z,79.70
2018-02-27T06:00:02.488Z,79.20
2018-02-27T06:02:30.833Z,79.80
2018-02-27T06:04:58.412Z,79.70
2018-02-27T06:07:25.997Z,80.00
2018-02-27T06:09:53.592Z,79.70
2018-02-27T06:12:21.203Z,79.50
2018-02-27T06:14:48.775Z,79.70
2018-02-27T06:17:16.386Z,79.50
2018-02-27T06:19:44.005Z,79.90
2018-02-27T06:22:11.599Z,80.10
2018-02-27T06:24:39.938Z,80.20
2018-02-27T06:27:07.527Z,80.20
2018-02-27T06:29:35.139Z,80.30
2018-02-27T06:32:02.731Z,80.10
2018-02-27T06:34:30.331Z,79.70
2018-02-27T06:36:58.757Z,80.30
2018-02-27T06:39:26.405Z,80.20
2018-02-27T06:41:53.985Z,80.40
2018-02-27T06:44:21.622Z,80.60
2018-02-27T06:46:49.977Z,80.50
2018-02-27T06:49:17.569Z,80.40
2018-02-27T06:51:45.961Z,80.20
2018-02-27T06:54:13.583Z,80.20
2018-02-27T06:56:41.184Z,80.50
2018-02-27T06:59:09.528Z,80.60
2018-02-27T07:01:37.116Z,80.60
2018-02-27T07:04:04.702Z,80.70
2018-02-27T07:06:33.076Z,80.80
2018-02-27T07:09:01.421Z,80.90
2018-02-27T07:11:29.043Z,80.80
2018-02-27T07:13:57.413Z,80.50
2018-02-27T07:16:25.821Z,80.30
2018-02-27T07:18:54.190Z,80.30
2018-02-27T07:21:21.783Z,80.30
2018-02-27T07:23:49.393Z,80.30
2018-02-27T07:26:18.415Z,80.10
2018-02-27T07:28:46.074Z,80.00
2018-02-27T07:31:14.500Z,79.70
2018-02-27T07:33:42.101Z,79.60
2018-02-27T07:36:09.712Z,79.40
2018-02-27T07:38:37.300Z,78.80
2018-02-27T07:41:04.888Z,77.90
2018-02-27T07:43:32.520Z,78.20
2018-02-27T07:46:00.095Z,77.50
2018-02-27T07:48:27.704Z,77.60
2018-02-27T07:50:55.310Z,76.80
2018-02-27T07:53:22.944Z,76.50
2018-02-27T07:55:51.326Z,76.30
2018-02-27T07:58:19.659Z,76.00
2018-02-27T08:00:47.306Z,76.00
2018-02-27T08:03:14.913Z,75.50
2018-02-27T08:05:42.547Z,75.30
2018-02-27T08:08:10.172Z,73.90
2018-02-27T08:10:37.770Z,74.30
2018-02-27T08:13:05.336Z,73.00
2018-02-27T08:15:32.932Z,73.00
2018-02-27T08:18:00.508Z,73.00
2018-02-27T08:20:28.128Z,73.30
2018-02-27T08:22:55.760Z,73.20
2018-02-27T08:25:23.330Z,73.20
2018-02-27T08:27:51.752Z,73.40
2018-02-27T08:30:19.363Z,73.40
2018-02-27T08:32:46.969Z,71.70
2018-02-27T08:35:14.591Z,71.10
2018-02-27T08:37:42.269Z,70.10
2018-02-27T08:40:09.813Z,70.80
2018-02-27T08:42:37.462Z,70.50
2018-02-27T08:45:05.045Z,68.90
2018-02-27T08:47:32.620Z,69.10
2018-02-27T08:50:00.198Z,68.50
2018-02-27T08:52:28.648Z,68.40
2018-02-27T08:54:56.284Z,67.50
2018-02-27T08:57:23.888Z,68.00
2018-02-27T08:59:51.504Z,67.80
2018-02-27T09:02:19.078Z,68.20
2018-02-27T09:04:46.666Z,67.90
2018-02-27T09:07:14.256Z,67.20
2018-02-27T09:09:42.549Z,66.30
2018-02-27T09:12:10.144Z,66.00
2018-02-27T09:14:37.817Z,65.50
2018-02-27T09:17:05.356Z,65.00
2018-02-27T09:19:33.711Z,64.40
2018-02-27T09:22:01.293Z,64.40
2018-02-27T09:24:28.859Z,64.50
2018-02-27T09:26:56.479Z,64.30
2018-02-27T09:29:24.068Z,63.40
2018-02-27T09:31:51.682Z,63.20
2018-02-27T09:34:19.277Z,62.30
2018-02-27T09:36:46.852Z,62.60
2018-02-27T09:39:14.442Z,61.50
2018-02-27T09:41:42.020Z,60.40
2018-02-27T09:44:09.613Z,60.00
2018-02-27T09:46:37.236Z,60.60
2018-02-27T09:49:04.828Z,59.50
2018-02-27T09:51:32.390Z,60.50
2018-02-27T09:54:00.774Z,59.10
2018-02-27T09:56:29.109Z,57.20
2018-02-27T09:58:56.673Z,57.00
2018-02-27T10:01:24.275Z,57.70
2018-02-27T10:03:51.939Z,57.70
2018-02-27T10:06:19.514Z,57.80
2018-02-27T10:08:47.852Z,57.10
2018-02-27T10:11:15.449Z,57.10
2018-02-27T10:13:43.821Z,53.80
2018-02-27T10:16:11.419Z,53.80
2018-02-27T10:18:38.989Z,54.10
2018-02-27T10:21:06.562Z,53.30
2018-02-27T10:23:34.149Z,52.60
2018-02-27T10:26:01.743Z,54.10
2018-02-27T10:28:29.349Z,54.60
2018-02-27T10:30:56.946Z,53.10
2018-02-27T10:33:24.526Z,52.80
2018-02-27T10:35:52.235Z,52.10
2018-02-27T10:38:20.930Z,52.00
2018-02-27T10:40:48.571Z,52.00
2018-02-27T10:43:18.011Z,51.90
2018-02-27T10:45:45.735Z,51.80
2018-02-27T10:48:13.300Z,51.70
2018-02-27T10:50:40.914Z,51.60
2018-02-27T10:53:08.586Z,50.70
2018-02-27T10:55:36.173Z,51.90
2018-02-27T10:58:03.757Z,51.00
2018-02-27T11:00:37.051Z,50.50
2018-02-27T11:03:04.770Z,50.50
2018-02-27T11:05:32.368Z,50.80
2018-02-27T11:08:00.378Z,51.40
2018-02-27T11:10:27.964Z,51.30
2018-02-27T11:12:55.562Z,51.40
2018-02-27T11:15:23.144Z,51.10
2018-02-27T11:17:51.550Z,50.70
2018-02-27T11:20:19.166Z,50.40
2018-02-27T11:22:46.760Z,50.30
2018-02-27T11:25:14.379Z,50.00
2018-02-27T11:27:41.970Z,50.00
2018-02-27T11:30:09.571Z,49.80
2018-02-27T11:32:37.171Z,49.40
2018-02-27T11:35:05.501Z,48.80
2018-02-27T11:37:33.111Z,48.80
2018-02-27T11:40:01.477Z,49.60
2018-02-27T11:42:29.095Z,50.20
2018-02-27T11:44:56.648Z,47.80
2018-02-27T11:47:24.218Z,47.30
2018-02-27T11:49:51.840Z,47.40
2018-02-27T11:52:19.414Z,47.10
2018-02-27T11:54:47.762Z,48.00
2018-02-27T11:57:15.394Z,48.60
2018-02-27T11:59:42.982Z,48.60
2018-02-27T12:02:10.545Z,48.80
2018-02-27T12:04:38.144Z,49.00
2018-02-27T12:07:05.746Z,49.60
2018-02-27T12:09:33.310Z,49.60
2018-02-27T12:12:00.909Z,50.30
2018-02-27T12:14:28.505Z,51.10
2018-02-27T12:16:56.107Z,51.40
2018-02-27T12:19:23.739Z,50.70
2018-02-27T12:21:51.345Z,51.10
2018-02-27T12:24:18.937Z,50.50
2018-02-27T12:26:46.516Z,50.80
2018-02-27T12:29:14.142Z,50.80
2018-02-27T12:31:41.724Z,49.50
2018-02-27T12:34:09.298Z,48.70
2018-02-27T12:36:36.894Z,47.60
2018-02-27T12:39:04.505Z,47.10
2018-02-27T12:41:32.080Z,46.50
2018-02-27T12:43:59.659Z,47.30
2018-02-27T12:46:27.264Z,47.70
2018-02-27T12:48:55.657Z,48.30
2018-02-27T12:51:24.020Z,47.50
2018-02-27T12:53:51.589Z,47.50
2018-02-27T12:56:19.927Z,46.80
2018-02-27T12:58:47.520Z,46.60
2018-02-27T13:01:15.123Z,47.30
2018-02-27T13:03:42.712Z,47.90
2018-02-27T13:06:11.489Z,47.70
2018-02-27T13:08:41.288Z,46.70
2018-02-27T13:11:09.619Z,46.20
2018-02-27T13:13:37.200Z,46.10
2018-02-27T13:16:04.784Z,45.60
2018-02-27T13:18:33.131Z,44.30
2018-02-27T13:21:00.700Z,44.30
2018-02-27T13:23:28.311Z,42.70
2018-02-27T13:25:55.913Z,42.30
2018-02-27T13:28:23.519Z,42.50
2018-02-27T13:30:51.130Z,43.80
2018-02-27T13:33:18.751Z,43.50
2018-02-27T13:35:46.361Z,43.30
2018-02-27T13:38:13.945Z,42.80
2018-02-27T13:40:41.529Z,41.80
2018-02-27T13:43:09.143Z,41.60
2018-02-27T13:45:37.664Z,41.60
2018-02-27T13:48:05.834Z,41.70
2018-02-27T13:50:33.456Z,42.50
2018-02-27T13:53:01.832Z,42.10
2018-02-27T13:55:30.196Z,41.70
2018-02-27T13:57:57.807Z,41.70
2018-02-27T14:00:26.150Z,41.40
2018-02-27T14:02:53.745Z,41.40
2018-02-27T14:05:22.080Z,40.60
2018-02-27T14:07:49.674Z,40.50
2018-02-27T14:10:17.321Z,40.90
2018-02-27T14:12:44.919Z,40.90
2018-02-27T14:15:13.253Z,40.80
2018-02-27T14:17:41.616Z,40.80
2018-02-27T14:20:09.214Z,42.40
2018-02-27T14:22:36.796Z,41.90
2018-02-27T14:25:04.357Z,41.40
2018-02-27T14:27:31.976Z,40.80
2018-02-27T14:29:59.561Z,40.10
2018-02-27T14:32:27.153Z,40.20
2018-02-27T14:34:54.933Z,42.00
2018-02-27T14:37:23.593Z,43.70
2018-02-27T14:39:51.963Z,44.10
2018-02-27T14:42:19.664Z,44.00
2018-02-27T14:44:48.048Z,45.50
2018-02-27T14:47:15.637Z,45.40
2018-02-27T14:49:44.651Z,46.90
2018-02-27T14:52:12.252Z,46.90
2018-02-27T14:54:39.953Z,46.90
2018-02-27T14:57:08.310Z,47.30
2018-02-27T14:59:35.893Z,47.30
2018-02-27T15:02:03.508Z,46.40
2018-02-27T15:04:31.092Z,44.40
2018-02-27T15:06:58.694Z,43.70
2018-02-27T15:09:28.004Z,43.20
2018-02-27T15:11:56.500Z,43.40
2018-02-27T15:14:24.076Z,43.20
2018-02-27T15:16:51.673Z,42.50
2018-02-27T15:19:19.324Z,40.80
2018-02-27T15:21:46.942Z,39.10
2018-02-27T15:24:14.548Z,38.50
2018-02-27T15:26:42.192Z,38.10
2018-02-27T15:29:10.521Z,39.30
2018-02-27T15:31:38.122Z,39.30
2018-02-27T15:34:06.464Z,40.80
2018-02-27T15:36:34.127Z,40.70
2018-02-27T15:39:01.715Z,41.10
2018-02-27T15:41:29.309Z,42.20
2018-02-27T15:43:57.681Z,43.80
2018-02-27T15:46:26.047Z,43.80
2018-02-27T15:48:53.639Z,43.70
2018-02-27T15:51:22.030Z,42.50
2018-02-27T15:53:49.638Z,42.50
2018-02-27T15:56:18.028Z,42.40
2018-02-27T15:58:45.626Z,42.40
2018-02-27T16:01:13.253Z,43.00
2018-02-27T16:03:40.892Z,42.90
2018-02-27T16:06:08.492Z,43.40
2018-02-27T16:08:36.058Z,43.30
2018-02-27T16:11:03.644Z,43.80
2018-02-27T16:13:31.256Z,44.20
2018-02-27T16:15:58.839Z,44.90
2018-02-27T16:18:26.427Z,45.70
2018-02-27T16:20:54.045Z,45.70
2018-02-27T16:23:21.741Z,45.90
2018-02-27T16:25:49.311Z,46.90
2018-02-27T16:28:16.916Z,48.30
2018-02-27T16:30:44.533Z,48.80
2018-02-27T16:33:12.118Z,48.70
2018-02-27T16:35:39.702Z,48.10
2018-02-27T16:38:07.287Z,48.00
2018-02-27T16:40:35.636Z,46.80
2018-02-27T16:43:03.236Z,46.80
2018-02-27T16:45:32.413Z,46.70
2018-02-27T16:47:59.952Z,46.70
2018-02-27T16:50:27.548Z,46.70
2018-02-27T16:52:55.142Z,46.70
2018-02-27T16:55:23.477Z,47.70
2018-02-27T16:57:51.083Z,47.70
2018-02-27T17:00:18.675Z,48.00
2018-02-27T17:02:46.281Z,48.50
2018-02-27T17:05:13.868Z,49.00
2018-02-27T17:07:42.242Z,49.40
2018-02-27T17:10:10.592Z,49.30
2018-02-27T17:12:38.173Z,49.50
2018-02-27T17:15:05.811Z,49.40
2018-02-27T17:17:33.424Z,49.10
2018-02-27T17:20:01.026Z,49.20
2018-02-27T17:22:28.646Z,49.30
2018-02-27T17:24:57.036Z,49.50
2018-02-27T17:27:24.642Z,49.40
2018-02-27T17:29:52.242Z,49.50
2018-02-27T17:32:19.824Z,49.70
2018-02-27T17:34:47.422Z,50.00
2018-02-27T17:37:15.037Z,50.20
2018-02-27T17:39:42.606Z,50.40
2018-02-27T17:42:10.219Z,50.30
2018-02-27T17:44:37.788Z,50.80
2018-02-27T17:47:05.402Z,50.70
2018-02-27T17:49:33.013Z,50.90
2018-02-27T17:52:00.609Z,50.90
2018-02-27T17:54:28.200Z,51.20
2018-02-27T17:56:55.803Z,51.00
2018-02-27T17:59:24.138Z,50.90
2018-02-27T18:01:51.740Z,50.90
2018-02-27T18:04:20.110Z,51.20
2018-02-27T18:06:47.722Z,51.20
2018-02-27T18:09:15.319Z,51.20
2018-02-27T18:11:42.941Z,51.20
2018-02-27T18:14:10.534Z,51.30
2018-02-27T18:16:38.136Z,51.60
2018-02-27T18:19:05.726Z,51.60
2018-02-27T18:21:33.336Z,51.70
2018-02-27T18:24:00.932Z,51.90
2018-02-27T18:26:28.540Z,51.90
2018-02-27T18:28:56.158Z,52.20
2018-02-27T18:31:23.761Z,52.20
2018-02-27T18:33:51.351Z,52.50
2018-02-27T18:36:18.971Z,52.40
2018-02-27T18:38:46.660Z,52.80
2018-02-27T18:41:14.272Z,53.30
2018-02-27T18:43:42.008Z,53.80
2018-02-27T18:46:09.580Z,55.20
2018-02-27T18:48:37.206Z,57.00
2018-02-27T18:51:05.568Z,61.70
2018-02-27T18:53:33.148Z,61.70
2018-02-27T18:56:01.505Z,64.90
2018-02-27T18:58:29.112Z,64.90
2018-02-27T19:00:57.474Z,67.70
2018-02-27T19:03:25.062Z,67.60
2018-02-27T19:05:52.687Z,68.40
2018-02-27T19:08:20.661Z,69.70
2018-02-27T19:10:48.254Z,70.20
2018-02-27T19:13:15.845Z,70.30
2018-02-27T19:15:43.745Z,70.60
2018-02-27T19:18:11.335Z,71.20
2018-02-27T19:20:38.921Z,71.60
2018-02-27T19:23:06.512Z,72.00
2018-02-27T19:25:34.116Z,72.40
2018-02-27T19:28:01.735Z,72.80
2018-02-27T19:30:29.336Z,73.20
2018-02-27T19:32:56.904Z,73.40
2018-02-27T19:35:24.504Z,73.70
2018-02-27T19:37:52.891Z,73.90
2018-02-27T19:40:21.248Z,74.30
2018-02-27T19:42:50.814Z,74.30
2018-02-27T19:45:18.397Z,74.60
2018-02-27T19:47:45.979Z,74.70
2018-02-27T19:50:13.619Z,74.60
2018-02-27T19:52:41.212Z,74.80
2018-02-27T19:55:08.821Z,74.90
2018-02-27T19:57:36.389Z,75.00
2018-02-27T20:00:04.776Z,75.30
2018-02-27T20:02:32.362Z,75.30
2018-02-27T20:05:00.365Z,75.30
2018-02-27T20:07:27.972Z,75.90
2018-02-27T20:09:56.349Z,76.50
2018-02-27T20:12:23.928Z,76.50
2018-02-27T20:14:51.520Z,76.60
2018-02-27T20:17:19.115Z,76.70
2018-02-27T20:19:46.757Z,76.90
2018-02-27T20:22:14.388Z,77.00
2018-02-27T20:24:41.980Z,77.30
2018-02-27T20:27:09.560Z,77.60
2018-02-27T20:29:37.159Z,77.60
2018-02-27T20:32:04.831Z,77.50
2018-02-27T20:34:33.348Z,77.90
2018-02-27T20:37:00.941Z,77.80
2018-02-27T20:39:28.568Z,77.90
2018-02-27T20:41:56.933Z,78.30
2018-02-27T20:44:25.295Z,78.30
2018-02-27T20:46:53.764Z,78.30
2018-02-27T20:49:22.096Z,78.30
2018-02-27T20:51:49.728Z,78.20
2018-02-27T20:54:17.380Z,78.40
2018-02-27T20:56:44.958Z,78.20
2018-02-27T20:59:12.539Z,78.40
2018-02-27T21:01:40.105Z,78.60
2018-02-27T21:04:08.484Z,78.80
2018-02-27T21:06:36.167Z,78.80
2018-02-27T21:09:04.547Z,79.30
2018-02-27T21:11:32.126Z,78.50
2018-02-27T21:14:00.484Z,79.10
2018-02-27T21:16:28.102Z,79.10
2018-02-27T21:18:56.529Z,79.20
2018-02-27T21:21:24.133Z,79.40
2018-02-27T21:23:51.705Z,79.60
2018-02-27T21:26:19.288Z,79.50
2018-02-27T21:28:46.880Z,79.40
2018-02-27T21:31:14.475Z,79.50
2018-02-27T21:33:42.848Z,79.50
2018-02-27T21:36:10.494Z,79.50
2018-02-27T21:38:38.076Z,79.80
2018-02-27T21:41:05.790Z,79.70
2018-02-27T21:43:34.181Z,80.10
2018-02-27T21:46:01.808Z,80.10
2018-02-27T21:48:30.170Z,80.00
2018-02-27T21:50:58.653Z,79.90
2018-02-27T21:53:26.240Z,80.10
2018-02-27T21:55:53.824Z,79.90
2018-02-27T21:58:21.419Z,79.90
2018-02-27T22:00:48.989Z,80.00
2018-02-27T22:03:16.622Z,80.00
2018-02-27T22:05:44.218Z,79.90
2018-02-27T22:08:11.817Z,79.80
2018-02-27T22:10:39.426Z,79.60
2018-02-27T22:13:07.026Z,79.70
2018-02-27T22:15:34.678Z,79.70
2018-02-27T22:18:02.276Z,79.50
2018-02-27T22:20:30.761Z,79.40
2018-02-27T22:22:58.350Z,79.30
2018-02-27T22:25:26.714Z,79.50
2018-02-27T22:27:54.312Z,79.50
2018-02-27T22:30:21.893Z,79.30
2018-02-27T22:32:49.486Z,79.30
2018-02-27T22:35:17.070Z,79.30
2018-02-27T22:37:44.654Z,79.30
2018-02-27T22:40:12.236Z,79.40
2018-02-27T22:42:39.855Z,79.40
2018-02-27T22:45:07.434Z,79.40
2018-02-27T22:47:35.033Z,79.40
2018-02-27T22:50:02.615Z,79.60
2018-02-27T22:52:30.822Z,79.60
2018-02-27T22:54:58.394Z,79.50
2018-02-27T22:57:25.997Z,79.70
2018-02-27T22:59:54.492Z,79.70
2018-02-27T23:02:22.060Z,79.70
2018-02-27T23:04:49.625Z,79.80
2018-02-27T23:07:17.219Z,79.80
2018-02-27T23:09:46.253Z,79.90
2018-02-27T23:12:13.832Z,79.90
2018-02-27T23:14:42.207Z,80.00
2018-02-27T23:17:09.806Z,79.90
2018-02-27T23:19:37.382Z,79.90
2018-02-27T23:22:04.949Z,79.80
2018-02-27T23:24:35.325Z,79.80
2018-02-27T23:27:04.336Z,79.80
2018-02-27T23:29:32.093Z,79.80
2018-02-27T23:32:00.567Z,80.00
2018-02-27T23:34:32.087Z,80.10
2018-02-27T23:36:59.708Z,80.30
2018-02-27T23:39:27.323Z,80.30
2018-02-27T23:41:55.678Z,80.30
2018-02-27T23:44:23.243Z,80.20
2018-02-27T23:46:50.845Z,80.20
2018-02-27T23:49:18.426Z,80.40
2018-02-27T23:51:46.932Z,80.40
2018-02-27T23:54:15.293Z,80.40
2018-02-27T23:56:42.868Z,80.40
2018-02-27T23:59:11.242Z,80.10
